createdAt,value
2022-11-16T00:02:11.127Z,14.73
2022-11-16T00:04:37.964Z,14.40
2022-11-16T00:07:05.127Z,14.68
2022-11-16T00:09:32.677Z,14.60
2022-11-16T00:12:01.757Z,14.64
2022-11-16T00:14:30.658Z,14.16
2022-11-16T00:16:57.418Z,14.36
2022-11-16T00:19:25.419Z,14.70
2022-11-16T00:21:52.754Z,14.18
2022-11-16T00:24:21.166Z,14.22
2022-11-16T00:26:48.690Z,13.85
2022-11-16T00:29:16.517Z,14.05
2022-11-16T00:31:43.816Z,14.14
2022-11-16T00:34:10.267Z,14.11
2022-11-16T00:36:36.860Z,14.14
2022-11-16T00:39:03.726Z,13.95
2022-11-16T00:41:30.185Z,13.86
2022-11-16T00:43:56.640Z,14.13
2022-11-16T00:46:23.155Z,14.27
2022-11-16T00:48:49.618Z,14.14
2022-11-16T00:51:16.022Z,14.12
2022-11-16T00:53:42.437Z,14.40
2022-11-16T00:56:08.865Z,13.86
2022-11-16T00:58:35.514Z,14.22
2022-11-16T01:01:07.077Z,14.33
2022-11-16T01:03:35.156Z,14.25
2022-11-16T01:06:07.995Z,14.00
2022-11-16T01:08:37.024Z,13.41
2022-11-16T01:11:22.840Z,13.72
2022-11-16T01:13:49.654Z,13.43
2022-11-16T01:16:17.655Z,13.21
2022-11-16T01:18:47.545Z,13.37
2022-11-16T01:21:14.111Z,13.47
2022-11-16T01:23:40.589Z,13.44
2022-11-16T01:26:07.069Z,13.09
2022-11-16T01:28:34.169Z,13.24
2022-11-16T01:31:01.138Z,13.57
2022-11-16T01:33:28.707Z,13.05
2022-11-16T01:35:55.172Z,13.40
2022-11-16T01:38:25.929Z,13.29
2022-11-16T01:40:54.990Z,13.51
2022-11-16T01:43:25.626Z,13.27
2022-11-16T01:45:52.514Z,13.16
2022-11-16T01:48:28.628Z,13.35
2022-11-16T01:50:56.361Z,13.55
2022-11-16T01:53:24.466Z,13.37
2022-11-16T01:55:52.506Z,13.46
2022-11-16T01:58:23.005Z,13.32
2022-11-16T02:00:49.553Z,13.26
2022-11-16T02:03:19.905Z,13.15
2022-11-16T02:05:55.332Z,13.44
2022-11-16T02:08:59.333Z,13.48
2022-11-16T02:11:25.693Z,13.58
2022-11-16T02:13:57.806Z,13.59
2022-11-16T02:16:24.196Z,14.02
2022-11-16T02:18:50.564Z,14.01
2022-11-16T02:21:27.821Z,13.72
2022-11-16T02:24:15.976Z,13.37
2022-11-16T02:26:54.570Z,13.02
2022-11-16T02:29:28.338Z,13.32
2022-11-16T02:32:04.939Z,13.63
2022-11-16T02:34:36.557Z,13.42
2022-11-16T02:37:06.723Z,13.38
2022-11-16T02:39:35.038Z,13.42
2022-11-16T02:42:02.634Z,12.65
2022-11-16T02:44:33.645Z,12.81
2022-11-16T02:47:05.132Z,13.13
2022-11-16T02:49:35.771Z,12.94
2022-11-16T02:52:04.777Z,12.92
2022-11-16T02:54:31.376Z,13.16
2022-11-16T02:57:32.699Z,12.99
2022-11-16T03:00:00.942Z,12.57
2022-11-16T03:02:37.825Z,12.87
2022-11-16T03:05:17.508Z,13.23
2022-11-16T03:08:01.804Z,13.54
2022-11-16T03:10:47.120Z,13.22
2022-11-16T03:13:15.677Z,13.47
2022-11-16T03:15:42.739Z,13.20
2022-11-16T03:18:10.687Z,13.19
2022-11-16T03:20:38.909Z,13.00
2022-11-16T03:23:10.083Z,12.65
2022-11-16T03:25:42.180Z,12.80
2022-11-16T03:28:15.070Z,12.56
2022-11-16T03:30:51.036Z,12.39
2022-11-16T03:33:27.557Z,12.33
2022-11-16T03:35:56.983Z,12.40
2022-11-16T03:38:26.062Z,12.20
2022-11-16T03:40:57.454Z,12.30
2022-11-16T03:43:26.494Z,12.34
2022-11-16T03:45:53.971Z,12.07
2022-11-16T03:48:20.378Z,12.04
2022-11-16T03:50:46.941Z,12.39
2022-11-16T03:53:13.372Z,12.36
2022-11-16T03:55:39.830Z,12.76
2022-11-16T03:58:06.276Z,12.92
2022-11-16T04:00:32.877Z,13.09
2022-11-16T04:02:59.455Z,12.95
2022-11-16T04:05:44.255Z,12.45
2022-11-16T04:08:34.396Z,12.33
2022-11-16T04:11:19.591Z,12.15
2022-11-16T04:14:09.096Z,12.21
2022-11-16T04:16:54.706Z,12.11
2022-11-16T04:19:57.964Z,12.15
2022-11-16T04:22:49.675Z,11.82
2022-11-16T04:25:21.217Z,11.77
2022-11-16T04:28:06.792Z,11.56
2022-11-16T04:30:52.751Z,10.94
2022-11-16T04:33:37.860Z,10.84
2022-11-16T04:36:23.073Z,11.07
2022-11-16T04:38:49.523Z,11.28
2022-11-16T04:41:34.491Z,10.60
2022-11-16T04:44:00.923Z,10.96
2022-11-16T04:46:45.639Z,10.41
2022-11-16T04:49:12.101Z,10.43
2022-11-16T04:51:38.562Z,10.54
2022-11-16T04:54:05.049Z,10.59
2022-11-16T04:56:31.481Z,10.90
2022-11-16T04:58:57.924Z,10.61
2022-11-16T05:01:44.439Z,10.34
2022-11-16T05:04:11.414Z,10.80
2022-11-16T05:06:37.857Z,10.91
2022-11-16T05:09:04.336Z,10.58
2022-11-16T05:11:30.814Z,10.83
2022-11-16T05:13:57.266Z,10.50
2022-11-16T05:16:23.697Z,10.43
2022-11-16T05:19:10.100Z,10.74
2022-11-16T05:21:36.574Z,10.88
2022-11-16T05:24:22.097Z,10.63
2022-11-16T05:26:48.568Z,10.57
2022-11-16T05:29:15.010Z,10.42
2022-11-16T05:31:41.447Z,10.42
2022-11-16T05:34:09.558Z,9.96
2022-11-16T05:36:36.018Z,9.61
2022-11-16T05:39:02.746Z,9.86
2022-11-16T05:41:29.212Z,9.31
2022-11-16T05:43:56.058Z,9.30
2022-11-16T05:46:23.658Z,9.56
2022-11-16T05:48:50.463Z,9.19
2022-11-16T05:51:17.238Z,9.07
2022-11-16T05:53:44.410Z,9.38
2022-11-16T05:56:12.024Z,9.09
2022-11-16T05:58:38.495Z,9.33
2022-11-16T06:01:05.172Z,9.27
2022-11-16T06:03:31.958Z,9.19
2022-11-16T06:05:58.888Z,9.31
2022-11-16T06:08:25.341Z,9.26
2022-11-16T06:10:51.773Z,9.77
2022-11-16T06:13:18.248Z,9.56
2022-11-16T06:15:51.343Z,9.35
2022-11-16T06:18:17.838Z,9.86
2022-11-16T06:20:44.246Z,9.92
2022-11-16T06:23:10.650Z,9.51
2022-11-16T06:25:38.927Z,9.55
2022-11-16T06:28:08.122Z,9.14
2022-11-16T06:30:35.042Z,9.54
2022-11-16T06:33:01.526Z,9.40
2022-11-16T06:35:27.990Z,9.21
2022-11-16T06:37:55.365Z,9.71
2022-11-16T06:40:21.830Z,9.41
2022-11-16T06:42:48.235Z,9.64
2022-11-16T06:45:14.659Z,9.50
2022-11-16T06:47:41.110Z,9.64
2022-11-16T06:50:08.067Z,9.35
2022-11-16T06:52:34.739Z,9.48
2022-11-16T06:55:01.149Z,9.44
2022-11-16T06:57:27.602Z,9.55
2022-11-16T06:59:54.129Z,9.40
2022-11-16T07:02:22.753Z,9.65
2022-11-16T07:04:49.211Z,9.15
2022-11-16T07:07:16.382Z,9.70
2022-11-16T07:09:44.513Z,9.26
2022-11-16T07:12:10.968Z,9.60
2022-11-16T07:14:37.517Z,9.56
2022-11-16T07:17:09.075Z,9.61
2022-11-16T07:19:36.685Z,9.18
2022-11-16T07:22:04.232Z,9.30
2022-11-16T07:24:30.695Z,9.60
2022-11-16T07:26:57.294Z,9.44
2022-11-16T07:29:24.500Z,9.61
2022-11-16T07:31:51.160Z,9.67
2022-11-16T07:34:17.673Z,9.24
2022-11-16T07:36:44.399Z,9.45
2022-11-16T07:39:28.901Z,9.21
2022-11-16T07:42:20.311Z,8.87
2022-11-16T07:50:02.470Z,8.91
2022-11-16T07:52:28.926Z,8.81
2022-11-16T07:54:55.367Z,8.76
2022-11-16T07:57:21.772Z,9.02
2022-11-16T07:59:48.210Z,9.12
2022-11-16T08:02:14.693Z,8.98
2022-11-16T08:04:41.247Z,9.43
2022-11-16T08:07:08.491Z,8.61
2022-11-16T08:09:35.029Z,8.97
2022-11-16T08:12:01.462Z,8.79
2022-11-16T08:14:27.856Z,9.02
2022-11-16T08:16:54.273Z,8.94
2022-11-16T08:19:20.666Z,8.94
2022-11-16T08:21:47.173Z,9.18
2022-11-16T08:24:13.643Z,8.27
2022-11-16T08:26:40.117Z,8.43
2022-11-16T08:29:06.572Z,8.66
2022-11-16T08:31:33.245Z,8.76
2022-11-16T08:34:00.523Z,9.24
2022-11-16T08:36:26.986Z,8.46
2022-11-16T08:38:53.872Z,8.80
2022-11-16T08:41:21.524Z,8.89
2022-11-16T08:43:50.472Z,8.75
2022-11-16T08:46:17.673Z,8.89
2022-11-16T08:48:44.461Z,8.72
2022-11-16T08:51:17.990Z,8.35
2022-11-16T08:53:48.022Z,8.27
2022-11-16T08:56:16.471Z,8.76
2022-11-16T08:58:57.848Z,8.52
2022-11-16T09:01:27.336Z,8.16
2022-11-16T09:03:54.304Z,8.57
2022-11-16T09:06:22.248Z,9.05
2022-11-16T09:08:48.787Z,8.83
2022-11-16T09:11:18.085Z,8.81
2022-11-16T09:13:46.555Z,8.57
2022-11-16T09:16:16.661Z,8.44
2022-11-16T09:18:47.591Z,8.53
2022-11-16T09:21:19.031Z,8.49
2022-11-16T09:23:46.306Z,8.73
2022-11-16T09:26:13.723Z,8.41
2022-11-16T09:28:41.172Z,8.26
2022-11-16T09:31:09.115Z,8.50
2022-11-16T09:33:36.928Z,8.54
2022-11-16T09:36:08.837Z,8.68
2022-11-16T09:39:13.900Z,8.62
2022-11-16T09:41:45.769Z,8.23
2022-11-16T09:44:33.412Z,8.50
2022-11-16T09:47:01.581Z,8.69
2022-11-16T09:49:42.455Z,8.67
2022-11-16T09:52:20.503Z,9.03
2022-11-16T09:54:48.716Z,8.87
2022-11-16T09:57:22.108Z,8.86
2022-11-16T09:59:53.581Z,8.64
2022-11-16T10:02:25.414Z,8.84
2022-11-16T10:04:58.630Z,8.59
2022-11-16T10:07:33.235Z,9.06
2022-11-16T10:09:59.663Z,9.02
2022-11-16T10:12:51.795Z,8.45
2022-11-16T10:15:21.060Z,8.40
2022-11-16T10:17:59.923Z,9.03
2022-11-16T10:21:03.477Z,9.02
2022-11-16T10:23:44.988Z,8.99
2022-11-16T10:26:28.790Z,8.50
2022-11-16T10:29:24.286Z,8.43
2022-11-16T10:32:31.847Z,8.73
2022-11-16T10:35:04.252Z,8.43
2022-11-16T10:37:33.179Z,8.82
2022-11-16T10:39:59.675Z,8.71
2022-11-16T10:42:30.923Z,8.86
2022-11-16T10:45:08.526Z,8.37
2022-11-16T10:47:56.729Z,9.01
2022-11-16T10:50:41.986Z,8.97
2022-11-16T10:53:25.410Z,8.88
2022-11-16T10:56:15.418Z,8.63
2022-11-16T10:58:52.166Z,9.13
2022-11-16T11:01:47.965Z,9.33
2022-11-16T11:04:14.364Z,8.84
2022-11-16T11:06:41.246Z,9.02
2022-11-16T11:09:20.479Z,9.15
2022-11-16T11:12:31.210Z,9.43
2022-11-16T11:15:26.407Z,9.30
2022-11-16T11:18:17.527Z,9.32
2022-11-16T11:20:47.836Z,9.10
2022-11-16T11:23:18.507Z,9.64
2022-11-16T11:25:49.704Z,9.17
2022-11-16T11:28:44.998Z,9.25
2022-11-16T11:31:52.337Z,9.60
2022-11-16T11:34:28.061Z,9.06
2022-11-16T11:37:11.220Z,9.47
2022-11-16T11:39:37.820Z,9.14
2022-11-16T11:42:22.498Z,9.52
2022-11-16T11:45:03.399Z,9.73
2022-11-16T11:48:04.244Z,9.64
2022-11-16T11:50:54.253Z,9.99
2022-11-16T11:53:37.542Z,9.42
2022-11-16T11:56:04.789Z,9.75
2022-11-16T11:58:34.213Z,9.52
2022-11-16T12:01:32.816Z,9.46
2022-11-16T12:04:08.028Z,10.09
2022-11-16T12:06:44.365Z,10.18
2022-11-16T12:09:20.698Z,9.84
2022-11-16T12:12:21.087Z,9.69
2022-11-16T12:15:20.860Z,10.19
2022-11-16T12:17:52.983Z,10.31
2022-11-16T12:20:25.745Z,10.25
2022-11-16T12:22:52.122Z,10.12
2022-11-16T12:25:56.925Z,9.93
2022-11-16T12:28:57.756Z,9.95
2022-11-16T12:31:39.291Z,9.66
2022-11-16T12:34:37.100Z,10.22
2022-11-16T12:37:28.120Z,10.06
2022-11-16T12:40:10.267Z,10.32
2022-11-16T12:42:58.561Z,9.94
2022-11-16T12:45:32.633Z,9.71
2022-11-16T12:48:08.689Z,9.98
2022-11-16T12:50:50.298Z,9.50
2022-11-16T12:53:58.213Z,10.07
2022-11-16T12:57:07.360Z,9.31
2022-11-16T12:59:39.743Z,9.47
2022-11-16T13:02:27.924Z,9.63
2022-11-16T13:05:01.776Z,9.62
2022-11-16T13:07:44.581Z,9.52
2022-11-16T13:10:22.539Z,9.81
2022-11-16T13:13:04.017Z,9.94
2022-11-16T13:15:42.000Z,10.18
2022-11-16T13:18:15.342Z,9.97
2022-11-16T13:21:14.915Z,9.90
2022-11-16T13:24:09.412Z,9.94
2022-11-16T13:26:54.096Z,10.20
2022-11-16T13:29:36.130Z,9.84
2022-11-16T13:32:13.177Z,10.24
2022-11-16T13:34:40.861Z,10.16
2022-11-16T13:37:52.331Z,9.95
2022-11-16T13:40:23.119Z,9.79
2022-11-16T13:43:00.910Z,10.41
2022-11-16T13:45:34.792Z,9.91
2022-11-16T13:50:51.138Z,10.05
2022-11-16T13:56:48.877Z,9.60
2022-11-16T13:59:16.531Z,10.18
2022-11-16T14:02:04.306Z,9.97
2022-11-16T14:04:41.763Z,9.87
2022-11-16T14:07:32.766Z,9.79
2022-11-16T14:09:59.647Z,10.08
2022-11-16T14:12:38.283Z,10.15
2022-11-16T14:15:18.265Z,9.73
2022-11-16T14:17:50.979Z,9.97
2022-11-16T14:20:43.669Z,10.10
2022-11-16T14:23:24.882Z,9.94
2022-11-16T14:26:06.543Z,9.76
2022-11-16T14:28:41.891Z,9.60
2022-11-16T14:31:25.650Z,9.53
2022-11-16T14:33:57.871Z,9.48
2022-11-16T14:36:41.587Z,9.50
2022-11-16T14:39:41.446Z,9.87
2022-11-16T14:42:18.088Z,9.81
2022-11-16T14:44:49.514Z,10.02
2022-11-16T14:47:28.053Z,9.86
2022-11-16T14:49:55.653Z,9.71
2022-11-16T14:52:49.920Z,9.45
2022-11-16T14:55:22.349Z,9.59
2022-11-16T14:57:48.947Z,9.75
2022-11-16T15:00:18.355Z,9.31
2022-11-16T15:02:53.631Z,9.99
2022-11-16T15:05:28.684Z,9.54
2022-11-16T15:08:05.389Z,9.31
2022-11-16T15:10:52.325Z,9.71
2022-11-16T15:13:24.170Z,9.61
2022-11-16T15:16:08.820Z,9.38
2022-11-16T15:18:35.344Z,9.90
2022-11-16T15:21:01.887Z,9.64
2022-11-16T15:23:30.810Z,9.52
2022-11-16T15:26:00.049Z,9.93
2022-11-16T15:28:28.835Z,10.01
2022-11-16T15:30:59.493Z,9.92
2022-11-16T15:33:32.679Z,9.97
2022-11-16T15:35:59.613Z,10.02
2022-11-16T15:38:49.972Z,9.53
2022-11-16T15:41:18.083Z,9.87
2022-11-16T15:44:12.305Z,9.90
2022-11-16T15:46:38.785Z,9.39
2022-11-16T15:49:15.927Z,9.31
2022-11-16T15:51:45.324Z,9.70
2022-11-16T15:54:25.158Z,9.44
2022-11-16T15:56:55.351Z,9.48
2022-11-16T15:59:32.182Z,9.70
2022-11-16T16:01:58.984Z,9.51
2022-11-16T16:04:26.766Z,9.47
2022-11-16T16:06:58.658Z,8.97
2022-11-16T16:09:29.084Z,9.44
2022-11-16T16:12:15.418Z,9.38
2022-11-16T16:14:42.518Z,9.25
2022-11-16T16:17:11.131Z,9.50
2022-11-16T16:19:43.031Z,9.26
2022-11-16T16:22:23.039Z,9.31
2022-11-16T16:24:49.521Z,9.35
2022-11-16T16:27:24.712Z,9.43
2022-11-16T16:29:52.937Z,9.47
2022-11-16T16:32:26.586Z,9.60
2022-11-16T16:34:59.117Z,9.72
2022-11-16T16:37:27.203Z,9.40
2022-11-16T16:39:53.710Z,9.11
2022-11-16T16:42:20.161Z,9.26
2022-11-16T16:44:47.765Z,9.06
2022-11-16T16:47:15.790Z,9.32
2022-11-16T16:49:42.287Z,9.37
2022-11-16T16:52:11.824Z,9.22
2022-11-16T16:54:38.360Z,9.25
2022-11-16T16:57:04.854Z,9.21
2022-11-16T16:59:31.345Z,9.45
2022-11-16T17:01:58.780Z,9.49
2022-11-16T17:04:25.614Z,9.61
2022-11-16T17:06:54.126Z,9.39
2022-11-16T17:09:20.899Z,9.79
2022-11-16T17:11:47.706Z,9.45
2022-11-16T17:14:14.372Z,9.54
2022-11-16T17:16:41.150Z,9.31
2022-11-16T17:19:07.808Z,9.00
2022-11-16T17:21:34.213Z,8.91
2022-11-16T17:24:00.715Z,9.19
2022-11-16T17:26:29.351Z,9.48
2022-11-16T17:28:57.265Z,9.17
2022-11-16T17:31:25.398Z,9.50
2022-11-16T17:33:52.586Z,9.50
2022-11-16T17:36:20.407Z,9.25
2022-11-16T17:38:46.827Z,9.37
2022-11-16T17:41:14.307Z,9.33
2022-11-16T17:43:42.755Z,9.45
2022-11-16T17:46:10.794Z,9.73
2022-11-16T17:48:38.517Z,9.56
2022-11-16T17:51:05.362Z,9.83
2022-11-16T17:53:34.710Z,9.69
2022-11-16T17:56:02.251Z,9.60
2022-11-16T17:58:30.035Z,9.25
2022-11-16T18:00:57.190Z,8.84
2022-11-16T18:03:24.174Z,9.07
2022-11-16T18:05:51.680Z,9.05
2022-11-16T18:08:18.154Z,9.70
2022-11-16T18:10:44.605Z,9.50
2022-11-16T18:13:11.030Z,9.28
2022-11-16T18:15:42.401Z,9.67
2022-11-16T18:18:09.134Z,9.69
2022-11-16T18:20:37.531Z,9.88
2022-11-16T18:23:04.358Z,9.94
2022-11-16T18:25:33.789Z,9.51
2022-11-16T18:28:00.216Z,9.61
2022-11-16T18:30:26.624Z,9.74
2022-11-16T18:32:53.051Z,9.75
2022-11-16T18:35:19.513Z,9.72
2022-11-16T18:37:45.995Z,9.60
2022-11-16T18:40:12.987Z,9.67
2022-11-16T18:42:39.931Z,9.59
2022-11-16T18:45:07.132Z,9.89
2022-11-16T18:47:35.305Z,9.14
2022-11-16T18:50:01.857Z,9.64
2022-11-16T18:52:28.387Z,9.62
2022-11-16T18:54:54.847Z,9.68
2022-11-16T18:57:21.364Z,10.04
2022-11-16T18:59:47.795Z,9.48
2022-11-16T19:02:14.201Z,9.78
2022-11-16T19:04:40.799Z,9.91
2022-11-16T19:07:07.788Z,9.78
2022-11-16T19:09:34.274Z,9.34
2022-11-16T19:12:00.719Z,9.08
2022-11-16T19:14:27.164Z,9.02
2022-11-16T19:16:57.120Z,8.89
2022-11-16T19:19:24.234Z,9.32
2022-11-16T19:21:51.830Z,9.67
2022-11-16T19:24:18.265Z,9.43
2022-11-16T19:26:44.659Z,9.10
2022-11-16T19:29:11.087Z,9.33
2022-11-16T19:31:37.543Z,9.27
2022-11-16T19:34:06.724Z,9.04
2022-11-16T19:36:35.325Z,9.47
2022-11-16T19:39:02.900Z,9.02
2022-11-16T19:41:29.518Z,9.28
2022-11-16T19:43:59.796Z,9.51
2022-11-16T19:46:28.312Z,9.28
2022-11-16T19:48:54.918Z,9.05
2022-11-16T19:51:29.475Z,9.17
2022-11-16T19:53:56.320Z,9.39
2022-11-16T19:56:24.056Z,9.31
2022-11-16T19:58:51.195Z,8.89
2022-11-16T20:01:29.208Z,9.36
2022-11-16T20:04:00.800Z,9.13
2022-11-16T20:06:29.513Z,9.60
2022-11-16T20:09:00.466Z,9.21
2022-11-16T20:11:29.138Z,9.29
2022-11-16T20:13:57.684Z,8.37
2022-11-16T20:16:27.317Z,8.56
2022-11-16T20:18:54.153Z,9.00
2022-11-16T20:21:33.057Z,8.28
2022-11-16T20:24:05.806Z,9.02
2022-11-16T20:26:36.428Z,8.56
2022-11-16T20:29:03.686Z,9.00
2022-11-16T20:31:31.708Z,8.77
2022-11-16T20:34:04.415Z,8.69
2022-11-16T20:36:32.893Z,8.92
2022-11-16T20:39:00.458Z,8.47
2022-11-16T20:41:29.452Z,9.20
2022-11-16T20:43:58.112Z,8.70
2022-11-16T20:46:27.267Z,9.04
2022-11-16T20:48:54.541Z,8.94
2022-11-16T20:51:21.369Z,8.93
2022-11-16T20:53:48.984Z,8.89
2022-11-16T20:56:17.042Z,9.02
2022-11-16T20:58:43.484Z,8.95
2022-11-16T21:01:14.203Z,8.62
2022-11-16T21:03:42.454Z,8.79
2022-11-16T21:06:08.912Z,8.60
2022-11-16T21:08:37.424Z,9.08
2022-11-16T21:11:15.403Z,9.02
2022-11-16T21:14:01.029Z,8.88
2022-11-16T21:16:27.428Z,8.84
2022-11-16T21:18:55.385Z,8.65
2022-11-16T21:21:22.034Z,8.29
2022-11-16T21:23:51.769Z,8.66
2022-11-16T21:26:20.569Z,8.86
2022-11-16T21:28:47.026Z,8.70
2022-11-16T21:31:18.786Z,8.73
2022-11-16T21:33:46.143Z,8.99
2022-11-16T21:36:20.987Z,8.69
2022-11-16T21:38:47.849Z,7.91
2022-11-16T21:41:15.724Z,8.56
2022-11-16T21:43:42.224Z,8.32
2022-11-16T21:46:14.000Z,8.45
2022-11-16T21:48:40.662Z,8.10
2022-11-16T21:51:18.068Z,8.62
2022-11-16T21:53:45.089Z,8.84
2022-11-16T21:56:19.973Z,8.33
2022-11-16T21:58:46.942Z,8.26
2022-11-16T22:01:15.829Z,8.52
2022-11-16T22:03:42.635Z,8.60
2022-11-16T22:06:32.608Z,8.43
2022-11-16T22:08:59.246Z,8.54
2022-11-16T22:11:25.961Z,8.73
2022-11-16T22:13:52.404Z,8.42
2022-11-16T22:16:20.878Z,8.29
2022-11-16T22:18:47.305Z,8.65
2022-11-16T22:21:13.753Z,8.39
2022-11-16T22:23:40.831Z,8.40
2022-11-16T22:26:10.148Z,8.01
2022-11-16T22:28:37.487Z,7.76
2022-11-16T22:31:13.080Z,8.09
2022-11-16T22:33:40.005Z,8.15
2022-11-16T22:36:10.478Z,8.57
2022-11-16T22:38:37.231Z,8.22
2022-11-16T22:41:04.356Z,8.20
2022-11-16T22:43:31.575Z,8.33
2022-11-16T22:46:04.482Z,8.37
2022-11-16T22:48:34.691Z,8.34
2022-11-16T22:51:07.124Z,8.15
2022-11-16T22:53:34.460Z,8.24
2022-11-16T22:56:06.458Z,8.45
2022-11-16T22:58:33.151Z,8.79
2022-11-16T23:00:59.677Z,8.31
2022-11-16T23:03:26.150Z,8.26
2022-11-16T23:05:52.577Z,8.47
2022-11-16T23:08:24.647Z,7.94
2022-11-16T23:11:24.967Z,8.29
2022-11-16T23:14:11.857Z,7.93
2022-11-16T23:16:39.338Z,8.22
2022-11-16T23:19:25.285Z,7.97
2022-11-16T23:22:10.127Z,8.14
2022-11-16T23:24:54.818Z,8.32
2022-11-16T23:27:30.684Z,8.32
2022-11-16T23:29:58.865Z,8.48
2022-11-16T23:32:25.514Z,8.49
2022-11-16T23:34:51.932Z,8.25
2022-11-16T23:37:18.414Z,7.83
2022-11-16T23:39:44.896Z,8.10
2022-11-16T23:42:30.438Z,7.51
2022-11-16T23:44:57.035Z,7.92
2022-11-16T23:47:23.844Z,8.55
2022-11-16T23:49:50.291Z,7.97
2022-11-16T23:52:16.700Z,7.68
2022-11-16T23:54:43.188Z,8.11
2022-11-16T23:57:09.690Z,7.73
2022-11-16T23:59:36.227Z,8.15
